sensor_id;sensor_type;location;lat;lon;timestamp;temperature;humidity
19552;DHT22;9921;47.186;9.778;2024-02-04T00:00:05;4.00;99.90
19552;DHT22;9921;47.186;9.778;2024-02-04T00:02:33;4.00;99.90
19552;DHT22;9921;47.186;9.778;2024-02-04T00:05:00;4.00;99.90
19552;DHT22;9921;47.186;9.778;2024-02-04T00:07:27;4.00;99.90
19552;DHT22;9921;47.186;9.778;2024-02-04T00:09:53;4.00;99.90
19552;DHT22;9921;47.186;9.778;2024-02-04T00:12:21;3.90;99.90
19552;DHT22;9921;47.186;9.778;2024-02-04T00:14:48;3.90;99.90
19552;DHT22;9921;47.186;9.778;2024-02-04T00:17:17;3.90;99.90
19552;DHT22;9921;47.186;9.778;2024-02-04T00:19:45;3.90;99.90
19552;DHT22;9921;47.186;9.778;2024-02-04T00:22:12;3.90;99.90
19552;DHT22;9921;47.186;9.778;2024-02-04T00:24:38;4.00;99.90
19552;DHT22;9921;47.186;9.778;2024-02-04T00:27:05;4.00;99.90
19552;DHT22;9921;47.186;9.778;2024-02-04T00:29:32;3.90;99.90
19552;DHT22;9921;47.186;9.778;2024-02-04T00:31:59;3.80;99.90
19552;DHT22;9921;47.186;9.778;2024-02-04T00:34:26;3.70;99.90
19552;DHT22;9921;47.186;9.778;2024-02-04T00:36:54;3.80;99.90
19552;DHT22;9921;47.186;9.778;2024-02-04T00:39:21;3.70;99.90
19552;DHT22;9921;47.186;9.778;2024-02-04T00:41:48;3.80;99.90
19552;DHT22;9921;47.186;9.778;2024-02-04T00:44:14;3.80;99.90
19552;DHT22;9921;47.186;9.778;2024-02-04T00:46:41;3.80;99.90
19552;DHT22;9921;47.186;9.778;2024-02-04T00:49:08;3.70;99.90
19552;DHT22;9921;47.186;9.778;2024-02-04T00:51:35;3.70;99.90
19552;DHT22;9921;47.186;9.778;2024-02-04T00:54:03;3.70;99.90
19552;DHT22;9921;47.186;9.778;2024-02-04T00:56:30;3.70;99.90
19552;DHT22;9921;47.186;9.778;2024-02-04T00:58:57;3.60;99.90
19552;DHT22;9921;47.186;9.778;2024-02-04T01:01:25;3.60;99.90
19552;DHT22;9921;47.186;9.778;2024-02-04T01:03:52;3.50;99.90
19552;DHT22;9921;47.186;9.778;2024-02-04T01:06:19;3.50;99.90
19552;DHT22;9921;47.186;9.778;2024-02-04T01:08:45;3.50;99.90
19552;DHT22;9921;47.186;9.778;2024-02-04T01:11:14;3.50;99.90
19552;DHT22;9921;47.186;9.778;2024-02-04T01:13:40;3.70;99.90
19552;DHT22;9921;47.186;9.778;2024-02-04T01:16:07;3.70;99.90
19552;DHT22;9921;47.186;9.778;2024-02-04T01:18:34;3.70;99.90
19552;DHT22;9921;47.186;9.778;2024-02-04T01:21:01;3.70;99.90
19552;DHT22;9921;47.186;9.778;2024-02-04T01:23:28;3.60;99.90
19552;DHT22;9921;47.186;9.778;2024-02-04T01:25:57;3.50;99.90
19552;DHT22;9921;47.186;9.778;2024-02-04T01:28:25;3.50;99.90
19552;DHT22;9921;47.186;9.778;2024-02-04T01:30:52;3.40;99.90
19552;DHT22;9921;47.186;9.778;2024-02-04T01:33:18;3.40;99.90
19552;DHT22;9921;47.186;9.778;2024-02-04T01:35:45;3.40;99.90
19552;DHT22;9921;47.186;9.778;2024-02-04T01:38:15;3.50;99.90
19552;DHT22;9921;47.186;9.778;2024-02-04T01:40:42;3.40;99.90
19552;DHT22;9921;47.186;9.778;2024-02-04T01:43:11;3.30;99.90
19552;DHT22;9921;47.186;9.778;2024-02-04T01:45:40;3.30;99.90
19552;DHT22;9921;47.186;9.778;2024-02-04T01:48:07;3.30;99.90
19552;DHT22;9921;47.186;9.778;2024-02-04T01:50:34;3.30;99.90
19552;DHT22;9921;47.186;9.778;2024-02-04T01:53:01;3.30;99.90
19552;DHT22;9921;47.186;9.778;2024-02-04T01:55:28;3.30;99.90
19552;DHT22;9921;47.186;9.778;2024-02-04T01:57:55;3.20;99.90
19552;DHT22;9921;47.186;9.778;2024-02-04T02:00:23;3.30;99.90
19552;DHT22;9921;47.186;9.778;2024-02-04T02:02:52;3.20;99.90
19552;DHT22;9921;47.186;9.778;2024-02-04T02:05:19;3.20;99.90
19552;DHT22;9921;47.186;9.778;2024-02-04T02:07:46;3.20;99.90
19552;DHT22;9921;47.186;9.778;2024-02-04T02:10:16;3.20;99.90
19552;DHT22;9921;47.186;9.778;2024-02-04T02:12:48;3.20;99.90
19552;DHT22;9921;47.186;9.778;2024-02-04T02:15:20;3.20;99.90
19552;DHT22;9921;47.186;9.778;2024-02-04T02:17:52;3.20;99.90
19552;DHT22;9921;47.186;9.778;2024-02-04T02:20:25;3.20;99.90
19552;DHT22;9921;47.186;9.778;2024-02-04T02:23:00;3.10;99.90
19552;DHT22;9921;47.186;9.778;2024-02-04T02:25:31;3.00;99.90
19552;DHT22;9921;47.186;9.778;2024-02-04T02:27:58;3.00;99.90
19552;DHT22;9921;47.186;9.778;2024-02-04T02:30:25;2.90;99.90
19552;DHT22;9921;47.186;9.778;2024-02-04T02:32:52;2.90;99.90
19552;DHT22;9921;47.186;9.778;2024-02-04T02:35:24;3.00;99.90
19552;DHT22;9921;47.186;9.778;2024-02-04T02:37:55;3.10;99.90
19552;DHT22;9921;47.186;9.778;2024-02-04T02:40:28;3.10;99.90
19552;DHT22;9921;47.186;9.778;2024-02-04T02:43:02;3.20;99.90
19552;DHT22;9921;47.186;9.778;2024-02-04T02:45:29;3.30;99.90
19552;DHT22;9921;47.186;9.778;2024-02-04T02:47:59;3.40;99.90
19552;DHT22;9921;47.186;9.778;2024-02-04T02:50:27;3.40;99.90
19552;DHT22;9921;47.186;9.778;2024-02-04T02:52:54;3.40;99.90
19552;DHT22;9921;47.186;9.778;2024-02-04T02:55:21;3.40;99.90
19552;DHT22;9921;47.186;9.778;2024-02-04T02:57:48;3.40;99.90
19552;DHT22;9921;47.186;9.778;2024-02-04T03:00:16;3.30;99.90
19552;DHT22;9921;47.186;9.778;2024-02-04T03:02:43;3.30;99.90
19552;DHT22;9921;47.186;9.778;2024-02-04T03:05:10;3.30;99.90
19552;DHT22;9921;47.186;9.778;2024-02-04T03:07:37;3.40;99.90
19552;DHT22;9921;47.186;9.778;2024-02-04T03:10:05;3.40;99.90
19552;DHT22;9921;47.186;9.778;2024-02-04T03:12:32;3.30;99.90
19552;DHT22;9921;47.186;9.778;2024-02-04T03:14:59;3.30;99.90
19552;DHT22;9921;47.186;9.778;2024-02-04T03:17:27;3.20;99.90
19552;DHT22;9921;47.186;9.778;2024-02-04T03:19:54;3.20;99.90
19552;DHT22;9921;47.186;9.778;2024-02-04T03:22:20;3.10;99.90
19552;DHT22;9921;47.186;9.778;2024-02-04T03:24:48;3.10;99.90
19552;DHT22;9921;47.186;9.778;2024-02-04T03:27:17;3.10;99.90
19552;DHT22;9921;47.186;9.778;2024-02-04T03:29:44;3.10;99.90
19552;DHT22;9921;47.186;9.778;2024-02-04T03:32:11;3.10;99.90
19552;DHT22;9921;47.186;9.778;2024-02-04T03:34:41;3.10;99.90
19552;DHT22;9921;47.186;9.778;2024-02-04T03:37:08;3.10;99.90
19552;DHT22;9921;47.186;9.778;2024-02-04T03:39:34;3.00;99.90
19552;DHT22;9921;47.186;9.778;2024-02-04T03:42:02;3.00;99.90
19552;DHT22;9921;47.186;9.778;2024-02-04T03:44:29;3.10;99.90
19552;DHT22;9921;47.186;9.778;2024-02-04T03:46:55;3.00;99.90
19552;DHT22;9921;47.186;9.778;2024-02-04T03:49:22;3.00;99.90
19552;DHT22;9921;47.186;9.778;2024-02-04T03:51:51;3.00;99.90
19552;DHT22;9921;47.186;9.778;2024-02-04T03:54:17;2.90;99.90
19552;DHT22;9921;47.186;9.778;2024-02-04T03:56:44;2.90;99.90
19552;DHT22;9921;47.186;9.778;2024-02-04T03:59:11;2.90;99.90
19552;DHT22;9921;47.186;9.778;2024-02-04T04:01:38;2.90;99.90
19552;DHT22;9921;47.186;9.778;2024-02-04T04:04:05;2.80;99.90
19552;DHT22;9921;47.186;9.778;2024-02-04T04:06:32;2.80;99.90
19552;DHT22;9921;47.186;9.778;2024-02-04T04:09:00;2.70;99.90
19552;DHT22;9921;47.186;9.778;2024-02-04T04:11:28;2.70;99.90
19552;DHT22;9921;47.186;9.778;2024-02-04T04:13:55;2.70;99.90
19552;DHT22;9921;47.186;9.778;2024-02-04T04:16:22;2.60;99.90
19552;DHT22;9921;47.186;9.778;2024-02-04T04:18:49;2.50;99.90
19552;DHT22;9921;47.186;9.778;2024-02-04T04:21:16;2.50;99.90
19552;DHT22;9921;47.186;9.778;2024-02-04T04:23:43;2.50;99.90
19552;DHT22;9921;47.186;9.778;2024-02-04T04:26:14;2.50;99.90
19552;DHT22;9921;47.186;9.778;2024-02-04T04:28:41;2.40;99.90
19552;DHT22;9921;47.186;9.778;2024-02-04T04:31:07;2.40;99.90
19552;DHT22;9921;47.186;9.778;2024-02-04T04:33:36;2.40;99.90
19552;DHT22;9921;47.186;9.778;2024-02-04T04:36:03;2.40;99.90
19552;DHT22;9921;47.186;9.778;2024-02-04T04:38:30;2.50;99.90
19552;DHT22;9921;47.186;9.778;2024-02-04T04:40:56;2.50;99.90
19552;DHT22;9921;47.186;9.778;2024-02-04T04:43:25;2.50;99.90
19552;DHT22;9921;47.186;9.778;2024-02-04T04:45:52;2.40;99.90
19552;DHT22;9921;47.186;9.778;2024-02-04T04:48:19;2.40;99.90
19552;DHT22;9921;47.186;9.778;2024-02-04T04:50:46;2.30;99.90
19552;DHT22;9921;47.186;9.778;2024-02-04T04:53:13;2.30;99.90
19552;DHT22;9921;47.186;9.778;2024-02-04T04:55:40;2.20;99.90
19552;DHT22;9921;47.186;9.778;2024-02-04T04:58:06;2.20;99.90
19552;DHT22;9921;47.186;9.778;2024-02-04T05:00:35;2.10;99.90
19552;DHT22;9921;47.186;9.778;2024-02-04T05:03:03;2.10;99.90
19552;DHT22;9921;47.186;9.778;2024-02-04T05:05:30;2.10;99.90
19552;DHT22;9921;47.186;9.778;2024-02-04T05:07:57;2.10;99.90
19552;DHT22;9921;47.186;9.778;2024-02-04T05:10:24;2.10;99.90
19552;DHT22;9921;47.186;9.778;2024-02-04T05:12:51;2.00;99.90
19552;DHT22;9921;47.186;9.778;2024-02-04T05:15:17;2.10;99.90
19552;DHT22;9921;47.186;9.778;2024-02-04T05:17:49;2.10;99.90
19552;DHT22;9921;47.186;9.778;2024-02-04T05:20:16;2.20;99.90
19552;DHT22;9921;47.186;9.778;2024-02-04T05:22:42;2.20;99.90
19552;DHT22;9921;47.186;9.778;2024-02-04T05:25:09;2.20;99.90
19552;DHT22;9921;47.186;9.778;2024-02-04T05:27:36;2.20;99.90
19552;DHT22;9921;47.186;9.778;2024-02-04T05:30:04;2.10;99.90
19552;DHT22;9921;47.186;9.778;2024-02-04T05:32:31;2.00;99.90
19552;DHT22;9921;47.186;9.778;2024-02-04T05:34:59;2.00;99.90
19552;DHT22;9921;47.186;9.778;2024-02-04T05:37:26;2.00;99.90
19552;DHT22;9921;47.186;9.778;2024-02-04T05:39:52;2.00;99.90
19552;DHT22;9921;47.186;9.778;2024-02-04T05:42:19;2.00;99.90
19552;DHT22;9921;47.186;9.778;2024-02-04T05:44:46;2.00;99.90
19552;DHT22;9921;47.186;9.778;2024-02-04T05:47:13;2.00;99.90
19552;DHT22;9921;47.186;9.778;2024-02-04T05:49:40;2.10;99.90
19552;DHT22;9921;47.186;9.778;2024-02-04T05:52:08;2.20;99.90
19552;DHT22;9921;47.186;9.778;2024-02-04T05:54:37;2.20;99.90
19552;DHT22;9921;47.186;9.778;2024-02-04T05:57:05;2.20;99.90
19552;DHT22;9921;47.186;9.778;2024-02-04T05:59:32;2.20;99.90
19552;DHT22;9921;47.186;9.778;2024-02-04T06:02:00;2.10;99.90
19552;DHT22;9921;47.186;9.778;2024-02-04T06:04:29;2.00;99.90
19552;DHT22;9921;47.186;9.778;2024-02-04T06:06:58;2.00;99.90
19552;DHT22;9921;47.186;9.778;2024-02-04T06:09:27;2.00;99.90
19552;DHT22;9921;47.186;9.778;2024-02-04T06:11:53;1.90;99.90
19552;DHT22;9921;47.186;9.778;2024-02-04T06:14:20;2.00;99.90
19552;DHT22;9921;47.186;9.778;2024-02-04T06:16:47;2.00;99.90
19552;DHT22;9921;47.186;9.778;2024-02-04T06:19:14;2.00;99.90
19552;DHT22;9921;47.186;9.778;2024-02-04T06:21:41;2.00;99.90
19552;DHT22;9921;47.186;9.778;2024-02-04T06:24:08;2.00;99.90
19552;DHT22;9921;47.186;9.778;2024-02-04T06:26:41;2.00;99.90
19552;DHT22;9921;47.186;9.778;2024-02-04T06:29:07;2.10;99.90
19552;DHT22;9921;47.186;9.778;2024-02-04T06:31:34;2.00;99.90
19552;DHT22;9921;47.186;9.778;2024-02-04T06:34:01;2.00;99.90
19552;DHT22;9921;47.186;9.778;2024-02-04T06:36:28;2.00;99.90
19552;DHT22;9921;47.186;9.778;2024-02-04T06:38:55;2.10;99.90
19552;DHT22;9921;47.186;9.778;2024-02-04T06:41:21;2.10;99.90
19552;DHT22;9921;47.186;9.778;2024-02-04T06:43:50;2.10;99.90
19552;DHT22;9921;47.186;9.778;2024-02-04T06:46:24;2.10;99.90
19552;DHT22;9921;47.186;9.778;2024-02-04T06:48:51;2.20;99.90
19552;DHT22;9921;47.186;9.778;2024-02-04T06:51:18;2.20;99.90
19552;DHT22;9921;47.186;9.778;2024-02-04T06:53:46;2.20;99.90
19552;DHT22;9921;47.186;9.778;2024-02-04T06:56:13;2.30;99.90
19552;DHT22;9921;47.186;9.778;2024-02-04T06:58:40;2.20;99.90
19552;DHT22;9921;47.186;9.778;2024-02-04T07:01:09;2.10;99.90
19552;DHT22;9921;47.186;9.778;2024-02-04T07:03:35;2.10;99.90
19552;DHT22;9921;47.186;9.778;2024-02-04T07:06:03;2.10;99.90
19552;DHT22;9921;47.186;9.778;2024-02-04T07:08:30;2.10;99.90
19552;DHT22;9921;47.186;9.778;2024-02-04T07:10:57;2.10;99.90
19552;DHT22;9921;47.186;9.778;2024-02-04T07:13:24;2.20;99.90
19552;DHT22;9921;47.186;9.778;2024-02-04T07:15:51;2.10;99.90
19552;DHT22;9921;47.186;9.778;2024-02-04T07:18:20;2.10;99.90
19552;DHT22;9921;47.186;9.778;2024-02-04T07:20:48;2.20;99.90
19552;DHT22;9921;47.186;9.778;2024-02-04T07:23:14;2.20;99.90
19552;DHT22;9921;47.186;9.778;2024-02-04T07:25:41;2.30;99.90
19552;DHT22;9921;47.186;9.778;2024-02-04T07:28:09;2.40;99.90
19552;DHT22;9921;47.186;9.778;2024-02-04T07:30:36;2.40;99.90
19552;DHT22;9921;47.186;9.778;2024-02-04T07:33:03;2.40;99.90
19552;DHT22;9921;47.186;9.778;2024-02-04T07:35:31;2.40;99.90
19552;DHT22;9921;47.186;9.778;2024-02-04T07:37:58;2.40;99.90
19552;DHT22;9921;47.186;9.778;2024-02-04T07:40:26;2.40;99.90
19552;DHT22;9921;47.186;9.778;2024-02-04T07:42:53;2.40;99.90
19552;DHT22;9921;47.186;9.778;2024-02-04T07:45:20;2.30;99.90
19552;DHT22;9921;47.186;9.778;2024-02-04T07:47:47;2.20;99.90
19552;DHT22;9921;47.186;9.778;2024-02-04T07:50:14;2.10;99.90
19552;DHT22;9921;47.186;9.778;2024-02-04T07:52:42;2.10;99.90
19552;DHT22;9921;47.186;9.778;2024-02-04T07:55:09;2.10;99.90
19552;DHT22;9921;47.186;9.778;2024-02-04T07:57:36;2.20;99.90
19552;DHT22;9921;47.186;9.778;2024-02-04T08:00:03;2.20;99.90
19552;DHT22;9921;47.186;9.778;2024-02-04T08:02:31;2.20;99.90
19552;DHT22;9921;47.186;9.778;2024-02-04T08:04:58;2.30;99.90
19552;DHT22;9921;47.186;9.778;2024-02-04T08:07:25;2.60;99.90
19552;DHT22;9921;47.186;9.778;2024-02-04T08:09:54;2.70;99.90
19552;DHT22;9921;47.186;9.778;2024-02-04T08:12:21;3.00;99.90
19552;DHT22;9921;47.186;9.778;2024-02-04T08:14:48;3.50;99.90
19552;DHT22;9921;47.186;9.778;2024-02-04T08:17:14;4.20;99.90
19552;DHT22;9921;47.186;9.778;2024-02-04T08:19:41;4.90;99.90
19552;DHT22;9921;47.186;9.778;2024-02-04T08:22:08;5.70;99.90
19552;DHT22;9921;47.186;9.778;2024-02-04T08:24:35;6.40;99.90
19552;DHT22;9921;47.186;9.778;2024-02-04T08:27:03;7.10;99.90
19552;DHT22;9921;47.186;9.778;2024-02-04T08:29:30;7.80;99.90
19552;DHT22;9921;47.186;9.778;2024-02-04T08:31:57;8.60;99.90
19552;DHT22;9921;47.186;9.778;2024-02-04T08:34:25;9.20;99.90
19552;DHT22;9921;47.186;9.778;2024-02-04T08:36:54;9.50;99.90
19552;DHT22;9921;47.186;9.778;2024-02-04T08:39:21;9.60;99.90
19552;DHT22;9921;47.186;9.778;2024-02-04T08:41:48;9.70;99.90
19552;DHT22;9921;47.186;9.778;2024-02-04T08:44:17;10.10;99.90
19552;DHT22;9921;47.186;9.778;2024-02-04T08:46:44;10.40;99.90
19552;DHT22;9921;47.186;9.778;2024-02-04T08:49:10;10.70;99.90
19552;DHT22;9921;47.186;9.778;2024-02-04T08:51:37;11.00;99.90
19552;DHT22;9921;47.186;9.778;2024-02-04T08:54:04;11.10;99.90
19552;DHT22;9921;47.186;9.778;2024-02-04T08:56:31;11.20;99.90
19552;DHT22;9921;47.186;9.778;2024-02-04T08:58:59;11.10;99.90
19552;DHT22;9921;47.186;9.778;2024-02-04T09:01:28;10.70;99.90
19552;DHT22;9921;47.186;9.778;2024-02-04T09:03:55;10.40;99.90
19552;DHT22;9921;47.186;9.778;2024-02-04T09:06:22;10.10;99.90
19552;DHT22;9921;47.186;9.778;2024-02-04T09:08:49;9.70;99.90
19552;DHT22;9921;47.186;9.778;2024-02-04T09:11:16;9.50;99.90
19552;DHT22;9921;47.186;9.778;2024-02-04T09:13:44;8.90;99.90
19552;DHT22;9921;47.186;9.778;2024-02-04T09:16:11;8.60;99.90
19552;DHT22;9921;47.186;9.778;2024-02-04T09:18:39;8.30;99.90
19552;DHT22;9921;47.186;9.778;2024-02-04T09:21:06;8.20;99.90
19552;DHT22;9921;47.186;9.778;2024-02-04T09:23:33;8.20;99.90
19552;DHT22;9921;47.186;9.778;2024-02-04T09:26:00;8.20;99.90
19552;DHT22;9921;47.186;9.778;2024-02-04T09:28:27;8.10;99.90
19552;DHT22;9921;47.186;9.778;2024-02-04T09:30:57;8.00;99.90
19552;DHT22;9921;47.186;9.778;2024-02-04T09:33:25;7.90;99.90
19552;DHT22;9921;47.186;9.778;2024-02-04T09:35:54;7.80;99.90
19552;DHT22;9921;47.186;9.778;2024-02-04T09:38:21;7.80;99.90
19552;DHT22;9921;47.186;9.778;2024-02-04T09:40:50;7.90;99.90
19552;DHT22;9921;47.186;9.778;2024-02-04T09:43:18;8.10;99.90
19552;DHT22;9921;47.186;9.778;2024-02-04T09:45:46;8.20;99.90
19552;DHT22;9921;47.186;9.778;2024-02-04T09:48:16;8.30;99.90
19552;DHT22;9921;47.186;9.778;2024-02-04T09:50:46;8.40;99.90
19552;DHT22;9921;47.186;9.778;2024-02-04T09:53:15;8.60;99.90
19552;DHT22;9921;47.186;9.778;2024-02-04T09:55:45;8.80;99.90
19552;DHT22;9921;47.186;9.778;2024-02-04T09:58:12;8.90;99.90
19552;DHT22;9921;47.186;9.778;2024-02-04T10:00:40;8.90;99.90
19552;DHT22;9921;47.186;9.778;2024-02-04T10:03:10;8.90;99.90
19552;DHT22;9921;47.186;9.778;2024-02-04T10:05:39;8.90;99.90
19552;DHT22;9921;47.186;9.778;2024-02-04T10:08:06;9.00;99.90
19552;DHT22;9921;47.186;9.778;2024-02-04T10:10:34;9.10;99.90
19552;DHT22;9921;47.186;9.778;2024-02-04T10:13:06;9.30;99.90
19552;DHT22;9921;47.186;9.778;2024-02-04T10:15:33;9.50;99.90
19552;DHT22;9921;47.186;9.778;2024-02-04T10:18:03;9.80;99.90
19552;DHT22;9921;47.186;9.778;2024-02-04T10:20:30;9.90;99.90
19552;DHT22;9921;47.186;9.778;2024-02-04T10:22:59;10.00;99.90
19552;DHT22;9921;47.186;9.778;2024-02-04T10:25:26;10.00;99.90
19552;DHT22;9921;47.186;9.778;2024-02-04T10:27:56;10.10;99.90
19552;DHT22;9921;47.186;9.778;2024-02-04T10:30:23;10.10;99.90
19552;DHT22;9921;47.186;9.778;2024-02-04T10:32:51;10.10;99.90
19552;DHT22;9921;47.186;9.778;2024-02-04T10:35:18;10.30;99.90
19552;DHT22;9921;47.186;9.778;2024-02-04T10:37:48;10.40;99.90
19552;DHT22;9921;47.186;9.778;2024-02-04T10:40:15;10.40;99.90
19552;DHT22;9921;47.186;9.778;2024-02-04T10:42:43;10.40;99.90
19552;DHT22;9921;47.186;9.778;2024-02-04T10:45:11;10.30;99.90
19552;DHT22;9921;47.186;9.778;2024-02-04T10:47:40;10.20;99.90
19552;DHT22;9921;47.186;9.778;2024-02-04T10:50:08;10.20;99.90
19552;DHT22;9921;47.186;9.778;2024-02-04T10:52:36;10.40;99.90
19552;DHT22;9921;47.186;9.778;2024-02-04T10:55:07;10.40;99.90
19552;DHT22;9921;47.186;9.778;2024-02-04T10:57:35;10.50;99.90
19552;DHT22;9921;47.186;9.778;2024-02-04T11:00:02;10.80;99.90
19552;DHT22;9921;47.186;9.778;2024-02-04T11:02:36;10.90;99.90
19552;DHT22;9921;47.186;9.778;2024-02-04T11:05:04;11.20;99.90
19552;DHT22;9921;47.186;9.778;2024-02-04T11:07:32;11.30;99.90
19552;DHT22;9921;47.186;9.778;2024-02-04T11:10:00;11.40;99.90
19552;DHT22;9921;47.186;9.778;2024-02-04T11:12:28;11.50;99.90
19552;DHT22;9921;47.186;9.778;2024-02-04T11:14:59;11.50;99.90
19552;DHT22;9921;47.186;9.778;2024-02-04T11:20:39;12.00;99.90
19552;DHT22;9921;47.186;9.778;2024-02-04T11:23:28;12.20;99.90
19552;DHT22;9921;47.186;9.778;2024-02-04T11:25:58;12.60;99.90
19552;DHT22;9921;47.186;9.778;2024-02-04T11:28:27;13.00;99.90
19552;DHT22;9921;47.186;9.778;2024-02-04T11:30:54;13.50;99.90
19552;DHT22;9921;47.186;9.778;2024-02-04T11:33:23;13.90;99.90
19552;DHT22;9921;47.186;9.778;2024-02-04T11:36:00;14.30;99.90
19552;DHT22;9921;47.186;9.778;2024-02-04T11:40:59;15.20;99.90
19552;DHT22;9921;47.186;9.778;2024-02-04T11:43:26;15.50;99.90
19552;DHT22;9921;47.186;9.778;2024-02-04T11:45:53;15.80;99.90
19552;DHT22;9921;47.186;9.778;2024-02-04T11:48:30;16.20;99.90
19552;DHT22;9921;47.186;9.778;2024-02-04T11:50:58;16.60;99.90
19552;DHT22;9921;47.186;9.778;2024-02-04T11:53:26;16.90;99.90
19552;DHT22;9921;47.186;9.778;2024-02-04T11:55:57;17.20;99.90
19552;DHT22;9921;47.186;9.778;2024-02-04T11:58:26;17.50;99.90
19552;DHT22;9921;47.186;9.778;2024-02-04T12:00:53;17.70;99.90
19552;DHT22;9921;47.186;9.778;2024-02-04T12:03:30;17.50;99.90
19552;DHT22;9921;47.186;9.778;2024-02-04T12:05:57;17.10;99.90
19552;DHT22;9921;47.186;9.778;2024-02-04T12:08:25;16.60;99.90
19552;DHT22;9921;47.186;9.778;2024-02-04T12:10:53;16.20;99.90
19552;DHT22;9921;47.186;9.778;2024-02-04T12:13:21;15.90;99.90
19552;DHT22;9921;47.186;9.778;2024-02-04T12:15:48;15.60;99.90
19552;DHT22;9921;47.186;9.778;2024-02-04T12:18:15;15.60;99.90
19552;DHT22;9921;47.186;9.778;2024-02-04T12:20:47;15.80;99.90
19552;DHT22;9921;47.186;9.778;2024-02-04T12:23:17;16.10;99.90
19552;DHT22;9921;47.186;9.778;2024-02-04T12:25:44;16.20;99.90
19552;DHT22;9921;47.186;9.778;2024-02-04T12:28:14;16.40;99.90
19552;DHT22;9921;47.186;9.778;2024-02-04T12:30:41;16.50;99.90
19552;DHT22;9921;47.186;9.778;2024-02-04T12:33:07;16.40;99.90
19552;DHT22;9921;47.186;9.778;2024-02-04T12:35:35;16.80;99.90
19552;DHT22;9921;47.186;9.778;2024-02-04T12:38:03;16.70;99.90
19552;DHT22;9921;47.186;9.778;2024-02-04T12:40:32;16.60;99.90
19552;DHT22;9921;47.186;9.778;2024-02-04T12:43:02;16.60;99.90
19552;DHT22;9921;47.186;9.778;2024-02-04T12:45:30;16.40;99.90
19552;DHT22;9921;47.186;9.778;2024-02-04T12:47:57;16.30;99.90
19552;DHT22;9921;47.186;9.778;2024-02-04T12:50:25;16.10;99.90
19552;DHT22;9921;47.186;9.778;2024-02-04T12:53:05;15.90;99.90
19552;DHT22;9921;47.186;9.778;2024-02-04T12:55:33;15.90;99.90
19552;DHT22;9921;47.186;9.778;2024-02-04T12:58:06;16.10;99.90
19552;DHT22;9921;47.186;9.778;2024-02-04T13:00:38;16.10;99.90
19552;DHT22;9921;47.186;9.778;2024-02-04T13:03:06;16.00;99.90
19552;DHT22;9921;47.186;9.778;2024-02-04T13:05:34;15.80;99.90
19552;DHT22;9921;47.186;9.778;2024-02-04T13:08:02;15.80;99.90
19552;DHT22;9921;47.186;9.778;2024-02-04T13:10:31;15.70;99.90
19552;DHT22;9921;47.186;9.778;2024-02-04T13:13:03;15.50;99.90
19552;DHT22;9921;47.186;9.778;2024-02-04T13:15:31;15.40;99.90
19552;DHT22;9921;47.186;9.778;2024-02-04T13:17:59;15.30;99.90
19552;DHT22;9921;47.186;9.778;2024-02-04T13:20:26;15.30;99.90
19552;DHT22;9921;47.186;9.778;2024-02-04T13:22:53;15.10;99.90
19552;DHT22;9921;47.186;9.778;2024-02-04T13:25:20;15.00;99.90
19552;DHT22;9921;47.186;9.778;2024-02-04T13:27:49;14.90;99.90
19552;DHT22;9921;47.186;9.778;2024-02-04T13:30:16;14.70;99.90
19552;DHT22;9921;47.186;9.778;2024-02-04T13:32:44;14.60;99.90
19552;DHT22;9921;47.186;9.778;2024-02-04T13:35:12;14.60;99.90
19552;DHT22;9921;47.186;9.778;2024-02-04T13:37:43;14.50;99.90
19552;DHT22;9921;47.186;9.778;2024-02-04T13:40:14;14.40;99.90
19552;DHT22;9921;47.186;9.778;2024-02-04T13:42:41;14.30;99.90
19552;DHT22;9921;47.186;9.778;2024-02-04T13:45:09;14.20;99.90
19552;DHT22;9921;47.186;9.778;2024-02-04T13:47:39;14.10;99.90
19552;DHT22;9921;47.186;9.778;2024-02-04T13:50:06;14.00;99.90
19552;DHT22;9921;47.186;9.778;2024-02-04T13:52:35;14.00;99.90
19552;DHT22;9921;47.186;9.778;2024-02-04T13:55:02;14.00;99.90
19552;DHT22;9921;47.186;9.778;2024-02-04T13:57:30;14.10;99.90
19552;DHT22;9921;47.186;9.778;2024-02-04T13:59:57;14.20;99.90
19552;DHT22;9921;47.186;9.778;2024-02-04T14:02:25;14.20;99.90
19552;DHT22;9921;47.186;9.778;2024-02-04T14:04:55;14.20;99.90
19552;DHT22;9921;47.186;9.778;2024-02-04T14:07:22;14.10;99.90
19552;DHT22;9921;47.186;9.778;2024-02-04T14:09:49;14.00;99.90
19552;DHT22;9921;47.186;9.778;2024-02-04T14:12:16;13.80;99.90
19552;DHT22;9921;47.186;9.778;2024-02-04T14:14:43;13.70;99.90
19552;DHT22;9921;47.186;9.778;2024-02-04T14:17:10;13.60;99.90
19552;DHT22;9921;47.186;9.778;2024-02-04T14:19:41;13.50;99.90
19552;DHT22;9921;47.186;9.778;2024-02-04T14:22:10;13.30;99.90
19552;DHT22;9921;47.186;9.778;2024-02-04T14:24:37;13.30;99.90
19552;DHT22;9921;47.186;9.778;2024-02-04T14:27:04;13.20;99.90
19552;DHT22;9921;47.186;9.778;2024-02-04T14:29:31;13.20;99.90
19552;DHT22;9921;47.186;9.778;2024-02-04T14:31:58;13.20;99.90
19552;DHT22;9921;47.186;9.778;2024-02-04T14:34:25;13.30;99.90
19552;DHT22;9921;47.186;9.778;2024-02-04T14:36:55;13.20;99.90
19552;DHT22;9921;47.186;9.778;2024-02-04T14:39:25;13.30;99.90
19552;DHT22;9921;47.186;9.778;2024-02-04T14:41:51;13.40;99.90
19552;DHT22;9921;47.186;9.778;2024-02-04T14:44:19;13.50;99.90
19552;DHT22;9921;47.186;9.778;2024-02-04T14:46:46;13.40;99.90
19552;DHT22;9921;47.186;9.778;2024-02-04T14:49:13;13.30;99.90
19552;DHT22;9921;47.186;9.778;2024-02-04T14:51:40;13.10;99.90
19552;DHT22;9921;47.186;9.778;2024-02-04T14:54:10;13.00;99.90
19552;DHT22;9921;47.186;9.778;2024-02-04T14:56:37;12.80;99.90
19552;DHT22;9921;47.186;9.778;2024-02-04T14:59:05;12.70;99.90
19552;DHT22;9921;47.186;9.778;2024-02-04T15:01:33;12.60;99.90
19552;DHT22;9921;47.186;9.778;2024-02-04T15:04:00;12.50;99.90
19552;DHT22;9921;47.186;9.778;2024-02-04T15:06:30;12.40;99.90
19552;DHT22;9921;47.186;9.778;2024-02-04T15:08:57;12.30;99.90
19552;DHT22;9921;47.186;9.778;2024-02-04T15:11:26;12.20;99.90
19552;DHT22;9921;47.186;9.778;2024-02-04T15:13:55;12.20;99.90
19552;DHT22;9921;47.186;9.778;2024-02-04T15:16:22;12.10;99.90
19552;DHT22;9921;47.186;9.778;2024-02-04T15:18:50;12.10;99.90
19552;DHT22;9921;47.186;9.778;2024-02-04T15:21:17;12.10;99.90
19552;DHT22;9921;47.186;9.778;2024-02-04T15:23:44;12.00;99.90
19552;DHT22;9921;47.186;9.778;2024-02-04T15:26:12;12.00;99.90
19552;DHT22;9921;47.186;9.778;2024-02-04T15:28:43;11.90;99.90
19552;DHT22;9921;47.186;9.778;2024-02-04T15:31:11;11.80;99.90
19552;DHT22;9921;47.186;9.778;2024-02-04T15:33:38;11.70;99.90
19552;DHT22;9921;47.186;9.778;2024-02-04T15:36:07;11.60;99.90
19552;DHT22;9921;47.186;9.778;2024-02-04T15:38:34;11.50;99.90
19552;DHT22;9921;47.186;9.778;2024-02-04T15:41:01;11.40;99.90
19552;DHT22;9921;47.186;9.778;2024-02-04T15:43:28;11.30;99.90
19552;DHT22;9921;47.186;9.778;2024-02-04T15:45:58;11.10;99.90
19552;DHT22;9921;47.186;9.778;2024-02-04T15:48:28;11.00;99.90
19552;DHT22;9921;47.186;9.778;2024-02-04T15:50:56;10.90;99.90
19552;DHT22;9921;47.186;9.778;2024-02-04T15:53:24;10.80;99.90
19552;DHT22;9921;47.186;9.778;2024-02-04T15:55:51;10.70;99.90
19552;DHT22;9921;47.186;9.778;2024-02-04T15:58:18;10.50;99.90
19552;DHT22;9921;47.186;9.778;2024-02-04T16:00:46;10.40;99.90
19552;DHT22;9921;47.186;9.778;2024-02-04T16:03:15;10.30;99.90